Time,TemperatureF,DewpointF,PressureIn,WindDirection,WindDirectionDegrees,WindSpeedMPH,WindSpeedGustMPH,Humidity,HourlyPrecipIn,Conditions,Clouds,dailyrainin,SoftwareType,DateUTC
2013-09-26 00:07:00,53.2,50.0,29.99,North,0,0.0,0.0,89,0.00,,CLR,0.00,VWS V14.01,2013-09-26 04:07:00,
2013-09-26 00:17:00,53.0,50.2,29.99,North,0,0.0,0.0,90,0.00,,CLR,0.00,VWS V14.01,2013-09-26 04:17:00,
2013-09-26 00:27:00,52.7,49.8,29.99,North,0,0.0,0.0,90,0.00,,CLR,0.00,VWS V14.01,2013-09-26 04:27:00,
2013-09-26 00:37:00,52.7,49.8,29.99,North,0,0.0,0.0,90,0.00,,CLR,0.00,VWS V14.01,2013-09-26 04:37:00,
2013-09-26 00:47:00,52.6,49.8,29.99,North,0,0.0,0.0,90,0.00,,CLR,0.00,VWS V14.01,2013-09-26 04:47:00,
2013-09-26 00:57:00,52.5,50.0,29.99,North,0,0.0,0.0,91,0.00,,CLR,0.00,VWS V14.01,2013-09-26 04:57:00,
2013-09-26 01:07:00,52.4,49.8,29.99,North,0,0.0,0.0,91,0.00,,CLR,0.00,VWS V14.01,2013-09-26 05:07:00,
2013-09-26 01:17:00,52.5,50.0,29.99,North,0,0.0,0.0,91,0.00,,CLR,0.00,VWS V14.01,2013-09-26 05:17:00,
2013-09-26 01:27:00,52.4,49.8,29.99,North,0,0.0,0.0,91,0.00,,CLR,0.00,VWS V14.01,2013-09-26 05:27:00,
2013-09-26 01:37:00,52.3,49.8,29.99,North,0,0.0,0.0,91,0.00,,CLR,0.00,VWS V14.01,2013-09-26 05:37:00,
2013-09-26 01:47:00,52.2,49.7,29.99,North,0,0.0,0.0,91,0.00,,CLR,0.00,VWS V14.01,2013-09-26 05:47:00,
2013-09-26 01:57:00,52.1,49.8,29.99,North,0,0.0,0.0,92,0.00,,CLR,0.00,VWS V14.01,2013-09-26 05:57:00,
2013-09-26 02:07:00,52.3,50.0,30.00,North,0,0.0,0.0,92,0.00,,CLR,0.00,VWS V14.01,2013-09-26 06:07:00,
2013-09-26 02:17:00,52.5,50.2,30.00,North,0,0.0,0.0,92,0.00,,CLR,0.00,VWS V14.01,2013-09-26 06:17:00,
2013-09-26 02:27:00,52.2,50.0,30.00,North,0,0.0,0.0,92,0.00,,CLR,0.00,VWS V14.01,2013-09-26 06:27:00,
2013-09-26 02:37:00,51.9,49.7,30.00,North,0,0.0,0.0,92,0.00,,CLR,0.00,VWS V14.01,2013-09-26 06:37:00,
2013-09-26 02:47:00,51.5,49.3,30.00,North,0,0.0,0.0,92,0.00,,CLR,0.00,VWS V14.01,2013-09-26 06:47:00,
2013-09-26 02:57:00,51.3,49.1,30.00,North,0,0.0,0.0,92,0.00,,CLR,0.00,VWS V14.01,2013-09-26 06:57:00,
2013-09-26 03:07:00,51.6,49.4,30.00,North,0,0.0,0.0,92,0.00,,CLR,0.00,VWS V14.01,2013-09-26 07:07:00,
2013-09-26 03:17:00,51.9,49.9,30.00,North,0,0.0,0.0,93,0.00,,CLR,0.00,VWS V14.01,2013-09-26 07:17:00,
2013-09-26 03:27:00,51.7,49.5,30.00,North,0,0.0,0.0,92,0.00,,CLR,0.00,VWS V14.01,2013-09-26 07:27:00,
2013-09-26 03:37:00,51.5,49.5,30.01,North,0,0.0,0.0,93,0.00,,CLR,0.00,VWS V14.01,2013-09-26 07:37:00,
2013-09-26 03:47:00,52.2,50.2,30.01,North,0,0.0,0.0,93,0.00,,CLR,0.00,VWS V14.01,2013-09-26 07:47:00,
2013-09-26 03:57:00,52.4,50.4,30.00,North,0,0.0,0.0,93,0.00,,CLR,0.00,VWS V14.01,2013-09-26 07:57:00,
2013-09-26 04:07:00,52.4,50.4,30.00,North,0,0.0,0.0,93,0.00,,CLR,0.00,VWS V14.01,2013-09-26 08:07:00,
2013-09-26 04:17:00,52.5,50.5,30.00,North,0,0.0,0.0,93,0.00,,CLR,0.00,VWS V14.01,2013-09-26 08:17:00,
2013-09-26 04:27:00,52.5,50.5,30.01,North,0,0.0,0.0,93,0.00,,CLR,0.00,VWS V14.01,2013-09-26 08:27:00,
2013-09-26 04:37:00,52.5,50.5,30.01,North,0,0.0,0.0,93,0.00,,CLR,0.00,VWS V14.01,2013-09-26 08:37:00,
2013-09-26 04:47:00,52.6,50.6,30.01,North,0,0.0,0.0,93,0.00,,CLR,0.00,VWS V14.01,2013-09-26 08:47:00,
2013-09-26 04:57:00,52.7,50.7,30.01,North,0,0.0,0.0,93,0.00,,CLR,0.00,VWS V14.01,2013-09-26 08:57:00,
2013-09-26 05:07:00,52.6,50.6,30.01,North,0,0.0,0.0,93,0.00,,CLR,0.00,VWS V14.01,2013-09-26 09:07:00,
2013-09-26 05:17:00,52.5,50.5,30.02,North,0,0.0,0.0,93,0.00,,CLR,0.00,VWS V14.01,2013-09-26 09:17:00,
2013-09-26 05:27:00,52.5,50.5,30.02,North,0,0.0,0.0,93,0.00,,CLR,0.00,VWS V14.01,2013-09-26 09:27:00,
2013-09-26 05:37:00,52.5,50.5,30.02,North,0,0.0,0.0,93,0.00,,CLR,0.00,VWS V14.01,2013-09-26 09:37:00,
2013-09-26 05:47:00,52.5,50.8,30.03,North,0,0.0,0.0,94,0.00,,,0.00,VWS V14.01,2013-09-26 09:47:00,
2013-09-26 05:57:00,52.5,50.8,30.03,North,0,0.0,0.0,94,0.00,,,0.00,VWS V14.01,2013-09-26 09:57:00,
2013-09-26 06:07:00,52.4,50.7,30.03,North,0,0.0,0.0,94,0.00,,,0.00,VWS V14.01,2013-09-26 10:07:00,
2013-09-26 06:17:00,52.4,50.7,30.03,North,0,0.0,0.0,94,0.00,,,0.00,VWS V14.01,2013-09-26 10:17:00,
2013-09-26 06:27:00,52.4,50.7,30.04,North,0,0.0,0.0,94,0.00,,,0.00,VWS V14.01,2013-09-26 10:27:00,
2013-09-26 06:37:00,52.2,50.5,30.04,North,0,0.0,0.0,94,0.00,,,0.00,VWS V14.01,2013-09-26 10:37:00,
2013-09-26 06:47:00,52.1,50.4,30.05,North,0,0.0,0.0,94,0.00,,,0.00,VWS V14.01,2013-09-26 10:47:00,
2013-09-26 06:57:00,51.9,50.2,30.05,North,0,0.0,0.0,94,0.00,,,0.00,VWS V14.01,2013-09-26 10:57:00,
2013-09-26 07:07:00,51.8,50.1,30.05,North,0,0.0,0.0,94,0.00,,,0.00,VWS V14.01,2013-09-26 11:07:00,
2013-09-26 07:17:00,51.7,50.0,30.06,North,0,0.0,0.0,94,0.00,,,0.00,VWS V14.01,2013-09-26 11:17:00,
2013-09-26 07:27:00,51.5,49.8,30.06,North,0,0.0,0.0,94,0.00,,,0.00,VWS V14.01,2013-09-26 11:27:00,
2013-09-26 07:37:00,51.2,49.5,30.06,North,0,0.0,0.0,94,0.00,,,0.00,VWS V14.01,2013-09-26 11:37:00,
2013-09-26 07:47:00,51.1,49.4,30.07,North,0,0.0,0.0,94,0.00,,,0.00,VWS V14.01,2013-09-26 11:47:00,
2013-09-26 08:07:00,51.2,49.5,30.07,North,0,0.0,0.0,94,0.00,,,0.00,VWS V14.01,2013-09-26 12:07:00,
2013-09-26 08:17:00,51.4,49.7,30.07,North,0,0.0,0.0,94,0.00,,,0.00,VWS V14.01,2013-09-26 12:17:00,
2013-09-26 08:27:00,51.8,50.1,30.07,North,0,0.0,0.0,94,0.00,,,0.00,VWS V14.01,2013-09-26 12:27:00,
2013-09-26 08:37:00,52.4,50.7,30.08,North,0,0.0,0.0,94,0.00,,,0.00,VWS V14.01,2013-09-26 12:37:00,
2013-09-26 08:47:00,53.2,51.5,30.08,North,0,0.0,0.0,94,0.01,,,0.01,VWS V14.01,2013-09-26 12:47:00,
2013-09-26 08:57:00,54.1,52.4,30.08,North,0,0.0,0.0,94,0.01,,,0.01,VWS V14.01,2013-09-26 12:57:00,
2013-09-26 09:07:00,55.0,53.3,30.08,North,0,0.0,0.0,94,0.01,,,0.01,VWS V14.01,2013-09-26 13:07:00,
2013-09-26 09:17:00,56.5,54.8,30.09,North,0,0.0,0.0,94,0.01,,,0.01,VWS V14.01,2013-09-26 13:17:00,
2013-09-26 09:27:00,58.0,55.7,30.09,North,0,0.0,0.0,92,0.01,,,0.01,VWS V14.01,2013-09-26 13:27:00,
2013-09-26 09:37:00,59.6,56.4,30.09,North,0,0.0,0.0,89,0.01,,,0.01,VWS V14.01,2013-09-26 13:37:00,
2013-09-26 09:47:00,60.6,56.7,30.09,North,0,0.0,0.0,87,0.01,,,0.01,VWS V14.01,2013-09-26 13:47:00,
2013-09-26 09:57:00,61.1,56.6,30.10,North,0,0.0,0.0,85,0.00,,,0.01,VWS V14.01,2013-09-26 13:57:00,
2013-09-26 10:07:00,62.3,56.7,30.10,North,0,0.0,0.0,82,0.00,,CLR,0.01,VWS V14.01,2013-09-26 14:07:00,
2013-09-26 10:17:00,62.8,56.5,30.10,North,0,0.0,0.0,80,0.00,,CLR,0.01,VWS V14.01,2013-09-26 14:17:00,
2013-09-26 10:27:00,63.6,57.0,30.10,North,0,0.0,0.0,79,0.00,,CLR,0.01,VWS V14.01,2013-09-26 14:27:00,
2013-09-26 10:37:00,64.5,57.5,30.10,North,0,0.0,0.0,78,0.00,,CLR,0.01,VWS V14.01,2013-09-26 14:37:00,
2013-09-26 10:47:00,65.4,57.7,30.10,North,0,0.0,0.0,76,0.00,,CLR,0.01,VWS V14.01,2013-09-26 14:47:00,
2013-09-26 10:57:00,66.0,57.9,30.10,North,0,0.0,0.0,75,0.00,,CLR,0.01,VWS V14.01,2013-09-26 14:57:00,
2013-09-26 11:07:00,66.5,57.6,30.10,North,0,0.0,0.0,73,0.00,,CLR,0.01,VWS V14.01,2013-09-26 15:07:00,
2013-09-26 11:17:00,67.1,58.5,30.10,North,0,0.0,0.0,74,0.00,,CLR,0.01,VWS V14.01,2013-09-26 15:17:00,
2013-09-26 11:27:00,67.0,58.5,30.10,North,0,0.0,0.0,74,0.00,,CLR,0.01,VWS V14.01,2013-09-26 15:27:00,
2013-09-26 11:37:00,67.5,58.9,30.10,North,0,0.0,0.0,74,0.00,,CLR,0.01,VWS V14.01,2013-09-26 15:37:00,
2013-09-26 11:47:00,68.1,58.7,30.10,North,0,0.0,0.0,72,0.00,,CLR,0.01,VWS V14.01,2013-09-26 15:47:00,
2013-09-26 11:57:00,68.4,57.8,30.10,North,0,0.0,0.0,69,0.00,,CLR,0.01,VWS V14.01,2013-09-26 15:57:00,
2013-09-26 12:07:00,68.3,58.2,30.10,North,0,0.0,0.0,70,0.00,,CLR,0.01,VWS V14.01,2013-09-26 16:07:00,
2013-09-26 12:17:00,69.2,58.2,30.10,North,0,0.0,0.0,68,0.00,,CLR,0.01,VWS V14.01,2013-09-26 16:17:00,
2013-09-26 12:27:00,69.5,57.7,30.10,North,0,0.0,0.0,66,0.00,,CLR,0.01,VWS V14.01,2013-09-26 16:27:00,
2013-09-26 12:37:00,69.9,57.2,30.09,North,0,0.0,0.0,64,0.00,,CLR,0.01,VWS V14.01,2013-09-26 16:37:00,
2013-09-26 12:47:00,70.2,56.6,30.10,North,0,0.0,0.0,62,0.00,,CLR,0.01,VWS V14.01,2013-09-26 16:47:00,
2013-09-26 12:57:00,70.7,56.2,30.10,North,0,0.0,0.0,60,0.00,,CLR,0.01,VWS V14.01,2013-09-26 16:57:00,
2013-09-26 13:07:00,70.5,57.8,30.10,North,0,0.0,0.0,64,0.00,,CLR,0.01,VWS V14.01,2013-09-26 17:07:00,
2013-09-26 13:17:00,70.8,56.2,30.09,North,0,0.0,0.0,60,0.00,,CLR,0.01,VWS V14.01,2013-09-26 17:17:00,
2013-09-26 13:27:00,71.6,55.6,30.09,North,0,0.0,0.0,57,0.00,,CLR,0.01,VWS V14.01,2013-09-26 17:27:00,
2013-09-26 13:37:00,71.9,57.3,30.09,North,0,0.0,0.0,60,0.00,,CLR,0.01,VWS V14.01,2013-09-26 17:37:00,
2013-09-26 13:47:00,71.9,55.4,30.09,North,0,0.0,0.0,56,0.00,,CLR,0.01,VWS V14.01,2013-09-26 17:47:00,
2013-09-26 13:57:00,72.5,54.4,30.08,North,0,0.0,0.0,53,0.00,,CLR,0.01,VWS V14.01,2013-09-26 17:57:00,
2013-09-26 14:17:00,72.9,51.5,30.08,North,0,0.0,0.0,47,0.00,,CLR,0.01,VWS V14.01,2013-09-26 18:17:00,
2013-09-26 14:27:00,72.6,51.8,30.08,North,0,0.0,0.0,48,0.00,,CLR,0.01,VWS V14.01,2013-09-26 18:27:00,
2013-09-26 14:37:00,72.6,51.2,30.08,North,0,0.0,0.0,47,0.00,,CLR,0.01,VWS V14.01,2013-09-26 18:37:00,
2013-09-26 14:47:00,73.0,50.4,30.08,North,0,0.0,0.0,45,0.00,,CLR,0.01,VWS V14.01,2013-09-26 18:47:00,
2013-09-26 15:07:00,73.2,51.8,30.08,North,0,0.0,0.0,47,0.00,,CLR,0.01,VWS V14.01,2013-09-26 19:07:00,
2013-09-26 15:17:00,73.5,49.7,30.08,North,0,0.0,0.0,43,0.00,,CLR,0.01,VWS V14.01,2013-09-26 19:17:00,
2013-09-26 15:27:00,73.0,46.6,30.08,North,0,0.0,0.0,39,0.00,,CLR,0.01,VWS V14.01,2013-09-26 19:27:00,
2013-09-26 15:37:00,72.7,47.7,30.08,North,0,0.0,0.0,41,0.00,,CLR,0.01,VWS V14.01,2013-09-26 19:37:00,
2013-09-26 15:47:00,72.9,48.5,30.08,North,0,0.0,0.0,42,0.00,,CLR,0.01,VWS V14.01,2013-09-26 19:47:00,
2013-09-26 15:57:00,73.2,44.7,30.08,North,0,0.0,0.0,36,0.00,,CLR,0.01,VWS V14.01,2013-09-26 19:57:00,
2013-09-26 16:07:00,72.2,45.2,30.08,North,0,0.0,0.0,38,0.00,,CLR,0.01,VWS V14.01,2013-09-26 20:07:00,
2013-09-26 16:17:00,72.7,49.5,30.08,North,0,0.0,0.0,44,0.00,,CLR,0.01,VWS V14.01,2013-09-26 20:17:00,
2013-09-26 16:40:00,73.0,46.6,30.08,North,0,0.0,0.0,39,0.00,,,0.01,VWS V14.01,2013-09-26 20:40:00,
2013-09-26 16:57:00,72.9,48.5,30.08,North,0,0.0,0.0,42,0.00,,,0.01,VWS V14.01,2013-09-26 20:57:00,
2013-09-26 17:11:00,72.2,47.9,30.08,North,0,0.0,0.0,42,0.00,,CLR,0.01,VWS V14.01,2013-09-26 21:11:00,
2013-09-26 17:21:00,72.3,49.2,30.08,North,0,0.0,0.0,44,0.00,,CLR,0.01,VWS V14.01,2013-09-26 21:21:00,
2013-09-26 17:31:00,72.4,48.7,30.09,North,0,0.0,0.0,43,0.00,,CLR,0.01,VWS V14.01,2013-09-26 21:31:00,
2013-09-26 17:41:00,72.0,48.9,30.09,North,0,0.0,0.0,44,0.00,,CLR,0.01,VWS V14.01,2013-09-26 21:41:00,
2013-09-26 17:51:00,72.3,49.2,30.09,North,0,0.0,0.0,44,0.00,,CLR,0.01,VWS V14.01,2013-09-26 21:51:00,
2013-09-26 18:01:00,71.6,47.9,30.10,North,0,0.0,0.0,43,0.00,,CLR,0.01,VWS V14.01,2013-09-26 22:01:00,
2013-09-26 18:11:00,71.1,48.1,30.10,North,0,0.0,0.0,44,0.00,,CLR,0.01,VWS V14.01,2013-09-26 22:11:00,
2013-09-26 18:21:00,70.6,47.0,30.10,North,0,0.0,0.0,43,0.00,,CLR,0.01,VWS V14.01,2013-09-26 22:21:00,
2013-09-26 18:31:00,70.6,47.7,30.10,North,0,0.0,0.0,44,0.00,,CLR,0.01,VWS V14.01,2013-09-26 22:31:00,
2013-09-26 18:41:00,70.4,47.5,30.10,North,0,0.0,0.0,44,0.00,,CLR,0.01,VWS V14.01,2013-09-26 22:41:00,
2013-09-26 18:51:00,70.1,47.8,30.10,North,0,0.0,0.0,45,0.00,,CLR,0.01,VWS V14.01,2013-09-26 22:51:00,
2013-09-26 19:01:00,69.6,48.5,30.10,North,0,0.0,0.0,47,0.00,,CLR,0.01,VWS V14.01,2013-09-26 23:01:00,
2013-09-26 19:11:00,68.9,48.4,30.10,North,0,0.0,0.0,48,0.00,,CLR,0.01,VWS V14.01,2013-09-26 23:11:00,
2013-09-26 19:21:00,68.0,47.6,30.11,North,0,0.0,0.0,48,0.00,,CLR,0.01,VWS V14.01,2013-09-26 23:21:00,
2013-09-26 19:31:00,67.0,48.3,30.11,North,0,0.0,0.0,51,0.00,,CLR,0.01,VWS V14.01,2013-09-26 23:31:00,
2013-09-26 19:41:00,65.9,48.3,30.11,North,0,0.0,0.0,53,0.00,,CLR,0.01,VWS V14.01,2013-09-26 23:41:00,
2013-09-26 19:51:00,64.7,48.7,30.11,North,0,0.0,0.0,56,0.00,,CLR,0.01,VWS V14.01,2013-09-26 23:51:00,
2013-09-26 20:01:00,63.5,48.9,30.11,North,0,0.0,0.0,59,0.00,,CLR,0.01,VWS V14.01,2013-09-27 00:01:00,
2013-09-26 20:11:00,62.6,49.4,30.11,North,0,0.0,0.0,62,0.00,,CLR,0.01,VWS V14.01,2013-09-27 00:11:00,
2013-09-26 22:10:00,56.5,50.8,30.14,North,0,0.0,0.0,81,0.00,,,0.01,VWS V14.01,2013-09-27 02:10:00,
2013-09-26 22:22:00,56.1,50.7,30.14,North,0,0.0,0.0,82,0.00,,,0.01,VWS V14.01,2013-09-27 02:22:00,
2013-09-26 22:31:00,55.8,50.7,30.14,North,0,0.0,0.0,83,0.00,,,0.01,VWS V14.01,2013-09-27 02:31:00,
2013-09-26 22:41:00,55.4,50.7,30.14,North,0,0.0,0.0,84,0.00,,,0.01,VWS V14.01,2013-09-27 02:41:00,
2013-09-26 22:51:00,55.1,50.7,30.14,North,0,0.0,0.0,85,0.00,,,0.01,VWS V14.01,2013-09-27 02:51:00,
2013-09-26 23:01:00,54.9,50.5,30.14,North,0,0.0,0.0,85,0.00,,,0.01,VWS V14.01,2013-09-27 03:01:00,
2013-09-26 23:11:00,54.8,50.7,30.14,North,0,0.0,0.0,86,0.00,,,0.01,VWS V14.01,2013-09-27 03:11:00,
2013-09-26 23:21:00,54.8,50.7,30.14,North,0,0.0,0.0,86,0.00,,,0.01,VWS V14.01,2013-09-27 03:21:00,
2013-09-26 23:31:00,54.7,50.9,30.14,North,0,0.0,0.0,87,0.00,,,0.01,VWS V14.01,2013-09-27 03:31:00,
2013-09-26 23:51:00,54.4,50.6,30.14,North,0,0.0,0.0,87,0.00,,,0.01,VWS V14.01,2013-09-27 03:51:00,